sensor_id;sensor_type;location;lat;lon;timestamp;temperature;humidity
45329;DHT22;72636;48.160;11.428;2023-11-19T00:02:10;5.70;99.90
45329;DHT22;72636;48.160;11.428;2023-11-19T00:04:39;5.70;99.90
45329;DHT22;72636;48.160;11.428;2023-11-19T00:07:05;5.70;99.90
45329;DHT22;72636;48.160;11.428;2023-11-19T00:09:32;5.80;99.90
45329;DHT22;72636;48.160;11.428;2023-11-19T00:11:58;5.80;99.90
45329;DHT22;72636;48.160;11.428;2023-11-19T00:14:26;5.80;99.90
45329;DHT22;72636;48.160;11.428;2023-11-19T00:16:52;5.80;99.90
45329;DHT22;72636;48.160;11.428;2023-11-19T00:19:19;5.80;99.90
45329;DHT22;72636;48.160;11.428;2023-11-19T00:21:44;5.80;99.90
45329;DHT22;72636;48.160;11.428;2023-11-19T00:24:11;5.90;99.90
45329;DHT22;72636;48.160;11.428;2023-11-19T00:26:38;5.80;99.90
45329;DHT22;72636;48.160;11.428;2023-11-19T00:29:04;5.90;99.90
45329;DHT22;72636;48.160;11.428;2023-11-19T00:31:30;5.90;99.90
45329;DHT22;72636;48.160;11.428;2023-11-19T00:33:55;6.00;99.90
45329;DHT22;72636;48.160;11.428;2023-11-19T00:36:21;6.00;99.90
45329;DHT22;72636;48.160;11.428;2023-11-19T00:38:49;6.00;99.90
45329;DHT22;72636;48.160;11.428;2023-11-19T00:41:15;6.00;99.90
45329;DHT22;72636;48.160;11.428;2023-11-19T00:43:42;6.10;99.90
45329;DHT22;72636;48.160;11.428;2023-11-19T00:46:08;6.10;99.90
45329;DHT22;72636;48.160;11.428;2023-11-19T00:48:34;6.10;99.90
45329;DHT22;72636;48.160;11.428;2023-11-19T00:50:59;6.20;99.90
45329;DHT22;72636;48.160;11.428;2023-11-19T00:53:25;6.20;99.90
45329;DHT22;72636;48.160;11.428;2023-11-19T00:55:50;6.30;99.90
45329;DHT22;72636;48.160;11.428;2023-11-19T00:58:17;6.30;99.90
45329;DHT22;72636;48.160;11.428;2023-11-19T01:00:43;6.30;99.90
45329;DHT22;72636;48.160;11.428;2023-11-19T01:03:10;6.30;99.90
45329;DHT22;72636;48.160;11.428;2023-11-19T01:05:36;6.30;99.90
45329;DHT22;72636;48.160;11.428;2023-11-19T01:08:02;6.30;99.90
45329;DHT22;72636;48.160;11.428;2023-11-19T01:10:30;6.30;99.90
45329;DHT22;72636;48.160;11.428;2023-11-19T01:12:55;6.40;99.90
45329;DHT22;72636;48.160;11.428;2023-11-19T01:15:21;6.40;99.90
45329;DHT22;72636;48.160;11.428;2023-11-19T01:17:48;6.40;99.90
45329;DHT22;72636;48.160;11.428;2023-11-19T01:20:13;6.50;99.90
45329;DHT22;72636;48.160;11.428;2023-11-19T01:22:39;6.50;99.90
45329;DHT22;72636;48.160;11.428;2023-11-19T01:25:06;6.50;99.90
45329;DHT22;72636;48.160;11.428;2023-11-19T01:27:32;6.50;99.90
45329;DHT22;72636;48.160;11.428;2023-11-19T01:30:00;6.50;99.90
45329;DHT22;72636;48.160;11.428;2023-11-19T01:32:31;6.50;99.90
45329;DHT22;72636;48.160;11.428;2023-11-19T01:34:57;6.50;99.90
45329;DHT22;72636;48.160;11.428;2023-11-19T01:37:22;6.60;99.90
45329;DHT22;72636;48.160;11.428;2023-11-19T01:39:48;6.60;99.90
45329;DHT22;72636;48.160;11.428;2023-11-19T01:42:14;6.70;99.90
45329;DHT22;72636;48.160;11.428;2023-11-19T01:44:41;6.70;99.90
45329;DHT22;72636;48.160;11.428;2023-11-19T01:47:07;6.70;99.90
45329;DHT22;72636;48.160;11.428;2023-11-19T01:49:34;6.80;99.90
45329;DHT22;72636;48.160;11.428;2023-11-19T01:52:00;6.80;99.90
45329;DHT22;72636;48.160;11.428;2023-11-19T01:54:26;6.80;99.90
45329;DHT22;72636;48.160;11.428;2023-11-19T01:56:55;6.90;99.90
45329;DHT22;72636;48.160;11.428;2023-11-19T01:59:23;7.00;99.90
45329;DHT22;72636;48.160;11.428;2023-11-19T02:01:53;7.00;99.90
45329;DHT22;72636;48.160;11.428;2023-11-19T02:04:19;7.00;99.90
45329;DHT22;72636;48.160;11.428;2023-11-19T02:06:48;7.10;99.90
45329;DHT22;72636;48.160;11.428;2023-11-19T02:09:14;7.10;99.90
45329;DHT22;72636;48.160;11.428;2023-11-19T02:11:40;7.20;99.90
45329;DHT22;72636;48.160;11.428;2023-11-19T02:14:06;7.30;99.90
45329;DHT22;72636;48.160;11.428;2023-11-19T02:16:32;7.30;99.90
45329;DHT22;72636;48.160;11.428;2023-11-19T02:18:57;7.40;99.90
45329;DHT22;72636;48.160;11.428;2023-11-19T02:21:23;7.50;99.90
45329;DHT22;72636;48.160;11.428;2023-11-19T02:23:49;7.50;99.90
45329;DHT22;72636;48.160;11.428;2023-11-19T02:28:43;7.70;99.90
45329;DHT22;72636;48.160;11.428;2023-11-19T02:31:09;7.80;99.90
45329;DHT22;72636;48.160;11.428;2023-11-19T02:33:36;7.80;99.90
45329;DHT22;72636;48.160;11.428;2023-11-19T02:36:08;7.90;99.90
45329;DHT22;72636;48.160;11.428;2023-11-19T02:38:34;8.00;99.90
45329;DHT22;72636;48.160;11.428;2023-11-19T02:41:03;8.00;99.90
45329;DHT22;72636;48.160;11.428;2023-11-19T02:43:34;8.10;99.90
45329;DHT22;72636;48.160;11.428;2023-11-19T02:46:03;8.10;99.90
45329;DHT22;72636;48.160;11.428;2023-11-19T02:48:36;8.20;99.90
45329;DHT22;72636;48.160;11.428;2023-11-19T02:51:02;8.30;99.90
45329;DHT22;72636;48.160;11.428;2023-11-19T02:53:29;8.30;99.90
45329;DHT22;72636;48.160;11.428;2023-11-19T02:55:55;8.40;99.90
45329;DHT22;72636;48.160;11.428;2023-11-19T02:58:31;8.40;99.90
45329;DHT22;72636;48.160;11.428;2023-11-19T03:00:57;8.50;99.90
45329;DHT22;72636;48.160;11.428;2023-11-19T03:03:25;8.50;99.90
45329;DHT22;72636;48.160;11.428;2023-11-19T03:05:59;8.60;99.90
45329;DHT22;72636;48.160;11.428;2023-11-19T03:08:24;8.60;99.90
45329;DHT22;72636;48.160;11.428;2023-11-19T03:10:50;8.70;99.90
45329;DHT22;72636;48.160;11.428;2023-11-19T03:13:16;8.70;99.90
45329;DHT22;72636;48.160;11.428;2023-11-19T03:15:43;8.70;99.90
45329;DHT22;72636;48.160;11.428;2023-11-19T03:18:09;8.80;99.90
45329;DHT22;72636;48.160;11.428;2023-11-19T03:20:34;8.80;99.90
45329;DHT22;72636;48.160;11.428;2023-11-19T03:23:00;8.90;99.90
45329;DHT22;72636;48.160;11.428;2023-11-19T03:25:27;8.90;99.90
45329;DHT22;72636;48.160;11.428;2023-11-19T03:28:00;9.00;99.90
45329;DHT22;72636;48.160;11.428;2023-11-19T03:30:26;9.00;99.90
45329;DHT22;72636;48.160;11.428;2023-11-19T03:32:54;9.10;99.90
45329;DHT22;72636;48.160;11.428;2023-11-19T03:35:19;9.10;99.90
45329;DHT22;72636;48.160;11.428;2023-11-19T03:37:45;9.10;99.90
45329;DHT22;72636;48.160;11.428;2023-11-19T03:40:12;9.20;99.90
45329;DHT22;72636;48.160;11.428;2023-11-19T03:42:37;9.20;99.90
45329;DHT22;72636;48.160;11.428;2023-11-19T03:45:08;9.20;99.90
45329;DHT22;72636;48.160;11.428;2023-11-19T03:47:34;9.30;99.90
45329;DHT22;72636;48.160;11.428;2023-11-19T03:50:00;9.30;99.90
45329;DHT22;72636;48.160;11.428;2023-11-19T03:52:26;9.40;99.90
45329;DHT22;72636;48.160;11.428;2023-11-19T03:54:57;9.40;99.90
45329;DHT22;72636;48.160;11.428;2023-11-19T03:57:23;9.50;99.90
45329;DHT22;72636;48.160;11.428;2023-11-19T03:59:49;9.40;99.90
45329;DHT22;72636;48.160;11.428;2023-11-19T04:02:16;9.50;99.90
45329;DHT22;72636;48.160;11.428;2023-11-19T04:04:41;9.50;99.90
45329;DHT22;72636;48.160;11.428;2023-11-19T04:07:07;9.50;99.90
45329;DHT22;72636;48.160;11.428;2023-11-19T04:09:33;9.60;99.90
45329;DHT22;72636;48.160;11.428;2023-11-19T04:11:59;9.60;99.90
45329;DHT22;72636;48.160;11.428;2023-11-19T04:14:26;9.60;99.90
45329;DHT22;72636;48.160;11.428;2023-11-19T04:16:52;9.60;99.90
45329;DHT22;72636;48.160;11.428;2023-11-19T04:19:18;9.60;99.90
45329;DHT22;72636;48.160;11.428;2023-11-19T04:21:44;9.70;99.90
45329;DHT22;72636;48.160;11.428;2023-11-19T04:24:10;9.70;99.90
45329;DHT22;72636;48.160;11.428;2023-11-19T04:26:44;9.70;99.90
45329;DHT22;72636;48.160;11.428;2023-11-19T04:29:12;9.70;99.90
45329;DHT22;72636;48.160;11.428;2023-11-19T04:31:38;9.70;99.90
45329;DHT22;72636;48.160;11.428;2023-11-19T04:34:05;9.70;99.90
45329;DHT22;72636;48.160;11.428;2023-11-19T04:36:31;9.80;99.90
45329;DHT22;72636;48.160;11.428;2023-11-19T04:38:58;9.80;99.90
45329;DHT22;72636;48.160;11.428;2023-11-19T04:41:25;9.80;99.90
45329;DHT22;72636;48.160;11.428;2023-11-19T04:43:50;9.80;99.90
45329;DHT22;72636;48.160;11.428;2023-11-19T04:46:16;9.90;99.90
45329;DHT22;72636;48.160;11.428;2023-11-19T04:48:41;9.90;99.90
45329;DHT22;72636;48.160;11.428;2023-11-19T04:51:07;9.90;99.90
45329;DHT22;72636;48.160;11.428;2023-11-19T04:53:35;9.90;99.90
45329;DHT22;72636;48.160;11.428;2023-11-19T04:56:00;9.90;99.90
45329;DHT22;72636;48.160;11.428;2023-11-19T04:58:29;9.90;99.90
45329;DHT22;72636;48.160;11.428;2023-11-19T05:00:54;9.90;99.90
45329;DHT22;72636;48.160;11.428;2023-11-19T05:03:20;10.00;99.90
45329;DHT22;72636;48.160;11.428;2023-11-19T05:05:48;10.00;99.90
45329;DHT22;72636;48.160;11.428;2023-11-19T05:08:14;10.00;99.90
45329;DHT22;72636;48.160;11.428;2023-11-19T05:10:39;10.00;99.90
45329;DHT22;72636;48.160;11.428;2023-11-19T05:13:05;10.00;99.90
45329;DHT22;72636;48.160;11.428;2023-11-19T05:15:31;10.00;99.90
45329;DHT22;72636;48.160;11.428;2023-11-19T05:17:57;10.00;99.90
45329;DHT22;72636;48.160;11.428;2023-11-19T05:20:22;10.00;99.90
45329;DHT22;72636;48.160;11.428;2023-11-19T05:22:48;10.00;99.90
45329;DHT22;72636;48.160;11.428;2023-11-19T05:25:16;10.00;99.90
45329;DHT22;72636;48.160;11.428;2023-11-19T05:27:42;10.00;99.90
45329;DHT22;72636;48.160;11.428;2023-11-19T05:30:08;10.00;99.90
45329;DHT22;72636;48.160;11.428;2023-11-19T05:32:34;10.10;99.90
45329;DHT22;72636;48.160;11.428;2023-11-19T05:34:59;10.10;99.90
45329;DHT22;72636;48.160;11.428;2023-11-19T05:37:25;10.10;99.90
45329;DHT22;72636;48.160;11.428;2023-11-19T05:39:51;10.10;99.90
45329;DHT22;72636;48.160;11.428;2023-11-19T05:42:16;10.10;99.90
45329;DHT22;72636;48.160;11.428;2023-11-19T05:44:42;10.10;99.90
45329;DHT22;72636;48.160;11.428;2023-11-19T05:47:08;10.10;99.90
45329;DHT22;72636;48.160;11.428;2023-11-19T05:49:33;10.10;99.90
45329;DHT22;72636;48.160;11.428;2023-11-19T05:51:59;10.10;99.90
45329;DHT22;72636;48.160;11.428;2023-11-19T05:54:25;10.10;99.90
45329;DHT22;72636;48.160;11.428;2023-11-19T05:56:51;10.10;99.90
45329;DHT22;72636;48.160;11.428;2023-11-19T05:59:19;10.10;99.90
45329;DHT22;72636;48.160;11.428;2023-11-19T06:01:45;10.10;99.90
45329;DHT22;72636;48.160;11.428;2023-11-19T06:04:11;10.10;99.90
45329;DHT22;72636;48.160;11.428;2023-11-19T06:06:36;10.10;99.90
45329;DHT22;72636;48.160;11.428;2023-11-19T06:09:03;10.10;99.90
45329;DHT22;72636;48.160;11.428;2023-11-19T06:11:29;10.10;99.90
45329;DHT22;72636;48.160;11.428;2023-11-19T06:13:54;10.10;99.90
45329;DHT22;72636;48.160;11.428;2023-11-19T06:16:20;10.10;99.90
45329;DHT22;72636;48.160;11.428;2023-11-19T06:18:46;10.10;99.90
45329;DHT22;72636;48.160;11.428;2023-11-19T06:21:12;10.10;99.90
45329;DHT22;72636;48.160;11.428;2023-11-19T06:23:37;10.10;99.90
45329;DHT22;72636;48.160;11.428;2023-11-19T06:26:03;10.20;99.90
45329;DHT22;72636;48.160;11.428;2023-11-19T06:28:31;10.20;99.90
45329;DHT22;72636;48.160;11.428;2023-11-19T06:30:56;10.20;99.90
45329;DHT22;72636;48.160;11.428;2023-11-19T06:33:24;10.20;99.90
45329;DHT22;72636;48.160;11.428;2023-11-19T06:35:49;10.30;99.90
45329;DHT22;72636;48.160;11.428;2023-11-19T06:38:15;10.30;99.90
45329;DHT22;72636;48.160;11.428;2023-11-19T06:40:41;10.30;99.90
45329;DHT22;72636;48.160;11.428;2023-11-19T06:43:06;10.30;99.90
45329;DHT22;72636;48.160;11.428;2023-11-19T06:45:34;10.30;99.90
45329;DHT22;72636;48.160;11.428;2023-11-19T06:48:03;10.30;99.90
45329;DHT22;72636;48.160;11.428;2023-11-19T06:50:30;10.30;99.90
45329;DHT22;72636;48.160;11.428;2023-11-19T06:52:55;10.40;99.90
45329;DHT22;72636;48.160;11.428;2023-11-19T06:55:21;10.40;99.90
45329;DHT22;72636;48.160;11.428;2023-11-19T06:57:47;10.40;99.90
45329;DHT22;72636;48.160;11.428;2023-11-19T07:00:12;10.40;99.90
45329;DHT22;72636;48.160;11.428;2023-11-19T07:02:38;10.40;99.90
45329;DHT22;72636;48.160;11.428;2023-11-19T07:05:05;10.50;99.90
45329;DHT22;72636;48.160;11.428;2023-11-19T07:07:32;10.50;99.90
45329;DHT22;72636;48.160;11.428;2023-11-19T07:09:58;10.50;99.90
45329;DHT22;72636;48.160;11.428;2023-11-19T07:12:24;10.50;99.90
45329;DHT22;72636;48.160;11.428;2023-11-19T07:14:52;10.50;99.90
45329;DHT22;72636;48.160;11.428;2023-11-19T07:17:18;10.60;99.90
45329;DHT22;72636;48.160;11.428;2023-11-19T07:19:46;10.60;99.90
45329;DHT22;72636;48.160;11.428;2023-11-19T07:22:12;10.60;99.90
45329;DHT22;72636;48.160;11.428;2023-11-19T07:24:39;10.60;99.90
45329;DHT22;72636;48.160;11.428;2023-11-19T07:27:05;10.70;99.90
45329;DHT22;72636;48.160;11.428;2023-11-19T07:29:32;10.70;99.90
45329;DHT22;72636;48.160;11.428;2023-11-19T07:31:57;10.70;99.90
45329;DHT22;72636;48.160;11.428;2023-11-19T07:34:24;10.80;99.90
45329;DHT22;72636;48.160;11.428;2023-11-19T07:36:50;10.80;99.90
45329;DHT22;72636;48.160;11.428;2023-11-19T07:39:15;10.80;99.90
45329;DHT22;72636;48.160;11.428;2023-11-19T07:41:41;10.80;99.90
45329;DHT22;72636;48.160;11.428;2023-11-19T07:44:07;10.90;99.90
45329;DHT22;72636;48.160;11.428;2023-11-19T07:46:32;10.90;99.90
45329;DHT22;72636;48.160;11.428;2023-11-19T07:48:58;10.90;99.90
45329;DHT22;72636;48.160;11.428;2023-11-19T07:51:24;10.90;99.90
45329;DHT22;72636;48.160;11.428;2023-11-19T07:53:49;10.90;99.90
45329;DHT22;72636;48.160;11.428;2023-11-19T07:56:15;11.00;99.90
45329;DHT22;72636;48.160;11.428;2023-11-19T07:58:40;11.00;99.90
45329;DHT22;72636;48.160;11.428;2023-11-19T08:01:07;11.00;99.90
45329;DHT22;72636;48.160;11.428;2023-11-19T08:03:32;11.00;99.90
45329;DHT22;72636;48.160;11.428;2023-11-19T08:05:59;11.10;99.90
45329;DHT22;72636;48.160;11.428;2023-11-19T08:08:25;11.10;99.90
45329;DHT22;72636;48.160;11.428;2023-11-19T08:10:51;11.10;99.90
45329;DHT22;72636;48.160;11.428;2023-11-19T08:13:20;11.10;99.90
45329;DHT22;72636;48.160;11.428;2023-11-19T08:15:45;11.20;99.90
45329;DHT22;72636;48.160;11.428;2023-11-19T08:18:12;11.20;99.90
45329;DHT22;72636;48.160;11.428;2023-11-19T08:20:37;11.30;99.90
45329;DHT22;72636;48.160;11.428;2023-11-19T08:23:03;11.30;99.90
45329;DHT22;72636;48.160;11.428;2023-11-19T08:25:29;11.40;99.90
45329;DHT22;72636;48.160;11.428;2023-11-19T08:27:55;11.40;99.90
45329;DHT22;72636;48.160;11.428;2023-11-19T08:30:20;11.50;99.90
45329;DHT22;72636;48.160;11.428;2023-11-19T08:32:46;11.50;99.90
45329;DHT22;72636;48.160;11.428;2023-11-19T08:35:11;11.50;99.90
45329;DHT22;72636;48.160;11.428;2023-11-19T08:37:37;11.50;99.90
45329;DHT22;72636;48.160;11.428;2023-11-19T08:40:04;11.60;99.90
45329;DHT22;72636;48.160;11.428;2023-11-19T08:42:30;11.60;99.90
45329;DHT22;72636;48.160;11.428;2023-11-19T08:44:56;11.60;99.90
45329;DHT22;72636;48.160;11.428;2023-11-19T08:47:22;11.70;99.90
45329;DHT22;72636;48.160;11.428;2023-11-19T08:49:51;11.70;99.90
45329;DHT22;72636;48.160;11.428;2023-11-19T08:52:17;11.80;99.90
45329;DHT22;72636;48.160;11.428;2023-11-19T08:54:43;11.80;99.90
45329;DHT22;72636;48.160;11.428;2023-11-19T08:57:09;11.80;99.90
45329;DHT22;72636;48.160;11.428;2023-11-19T08:59:35;11.80;99.90
45329;DHT22;72636;48.160;11.428;2023-11-19T09:02:00;11.80;99.90
45329;DHT22;72636;48.160;11.428;2023-11-19T09:04:27;11.90;99.90
45329;DHT22;72636;48.160;11.428;2023-11-19T09:06:53;11.90;99.90
45329;DHT22;72636;48.160;11.428;2023-11-19T09:09:18;11.90;99.90
45329;DHT22;72636;48.160;11.428;2023-11-19T09:11:44;11.90;99.90
45329;DHT22;72636;48.160;11.428;2023-11-19T09:14:10;11.90;99.90
45329;DHT22;72636;48.160;11.428;2023-11-19T09:16:35;12.00;99.90
45329;DHT22;72636;48.160;11.428;2023-11-19T09:19:01;12.00;99.90
45329;DHT22;72636;48.160;11.428;2023-11-19T09:21:28;12.00;99.90
45329;DHT22;72636;48.160;11.428;2023-11-19T09:23:56;12.00;99.90
45329;DHT22;72636;48.160;11.428;2023-11-19T09:26:21;12.10;99.90
45329;DHT22;72636;48.160;11.428;2023-11-19T09:28:47;12.20;99.90
45329;DHT22;72636;48.160;11.428;2023-11-19T09:31:16;12.20;99.90
45329;DHT22;72636;48.160;11.428;2023-11-19T09:33:42;12.30;99.90
45329;DHT22;72636;48.160;11.428;2023-11-19T09:36:08;12.30;99.90
45329;DHT22;72636;48.160;11.428;2023-11-19T09:38:34;12.30;99.90
45329;DHT22;72636;48.160;11.428;2023-11-19T09:41:05;12.30;99.90
45329;DHT22;72636;48.160;11.428;2023-11-19T09:43:34;12.20;99.90
45329;DHT22;72636;48.160;11.428;2023-11-19T09:46:09;12.20;99.90
45329;DHT22;72636;48.160;11.428;2023-11-19T09:48:37;12.30;99.90
45329;DHT22;72636;48.160;11.428;2023-11-19T09:51:04;12.30;99.90
45329;DHT22;72636;48.160;11.428;2023-11-19T09:53:30;12.40;99.90
45329;DHT22;72636;48.160;11.428;2023-11-19T09:55:59;12.50;99.90
45329;DHT22;72636;48.160;11.428;2023-11-19T09:58:26;12.60;99.90
45329;DHT22;72636;48.160;11.428;2023-11-19T10:00:51;12.70;99.90
45329;DHT22;72636;48.160;11.428;2023-11-19T10:03:21;12.80;99.90
45329;DHT22;72636;48.160;11.428;2023-11-19T10:05:47;12.90;99.90
45329;DHT22;72636;48.160;11.428;2023-11-19T10:08:13;13.00;99.90
45329;DHT22;72636;48.160;11.428;2023-11-19T10:10:39;13.00;99.90
45329;DHT22;72636;48.160;11.428;2023-11-19T10:13:05;13.10;99.90
45329;DHT22;72636;48.160;11.428;2023-11-19T10:15:35;13.20;99.90
45329;DHT22;72636;48.160;11.428;2023-11-19T10:18:02;13.30;99.90
45329;DHT22;72636;48.160;11.428;2023-11-19T10:20:28;13.60;99.90
45329;DHT22;72636;48.160;11.428;2023-11-19T10:22:54;14.20;99.90
45329;DHT22;72636;48.160;11.428;2023-11-19T10:25:25;14.80;99.90
45329;DHT22;72636;48.160;11.428;2023-11-19T10:27:57;15.20;99.90
45329;DHT22;72636;48.160;11.428;2023-11-19T10:30:23;15.30;99.90
45329;DHT22;72636;48.160;11.428;2023-11-19T10:33:11;15.30;99.90
45329;DHT22;72636;48.160;11.428;2023-11-19T10:35:55;15.30;99.90
45329;DHT22;72636;48.160;11.428;2023-11-19T10:38:25;15.30;99.90
45329;DHT22;72636;48.160;11.428;2023-11-19T10:40:51;15.10;99.90
45329;DHT22;72636;48.160;11.428;2023-11-19T10:43:17;15.10;99.90
45329;DHT22;72636;48.160;11.428;2023-11-19T10:45:44;15.20;99.90
45329;DHT22;72636;48.160;11.428;2023-11-19T10:48:10;15.20;99.90
45329;DHT22;72636;48.160;11.428;2023-11-19T10:50:38;15.20;99.90
45329;DHT22;72636;48.160;11.428;2023-11-19T10:53:05;15.10;99.90
45329;DHT22;72636;48.160;11.428;2023-11-19T10:55:33;15.00;99.90
45329;DHT22;72636;48.160;11.428;2023-11-19T10:58:07;14.90;99.90
45329;DHT22;72636;48.160;11.428;2023-11-19T11:00:50;14.80;99.90
45329;DHT22;72636;48.160;11.428;2023-11-19T11:03:21;14.70;99.90
45329;DHT22;72636;48.160;11.428;2023-11-19T11:05:51;14.70;99.90
45329;DHT22;72636;48.160;11.428;2023-11-19T11:08:18;14.70;99.90
45329;DHT22;72636;48.160;11.428;2023-11-19T11:10:55;14.80;99.90
45329;DHT22;72636;48.160;11.428;2023-11-19T11:13:22;14.80;99.90
45329;DHT22;72636;48.160;11.428;2023-11-19T11:15:50;14.90;99.90
45329;DHT22;72636;48.160;11.428;2023-11-19T11:18:16;14.90;99.90
45329;DHT22;72636;48.160;11.428;2023-11-19T11:20:45;15.10;99.90
45329;DHT22;72636;48.160;11.428;2023-11-19T11:31:48;15.30;99.90
45329;DHT22;72636;48.160;11.428;2023-11-19T11:39:40;15.30;99.90
45329;DHT22;72636;48.160;11.428;2023-11-19T11:45:08;15.30;99.90
45329;DHT22;72636;48.160;11.428;2023-11-19T11:55:52;15.10;99.90
45329;DHT22;72636;48.160;11.428;2023-11-19T11:58:25;15.00;99.90
45329;DHT22;72636;48.160;11.428;2023-11-19T12:00:51;15.00;99.90
45329;DHT22;72636;48.160;11.428;2023-11-19T12:03:20;14.90;99.90
45329;DHT22;72636;48.160;11.428;2023-11-19T12:05:49;14.90;99.90
45329;DHT22;72636;48.160;11.428;2023-11-19T12:08:18;14.80;99.90
45329;DHT22;72636;48.160;11.428;2023-11-19T12:10:47;14.90;99.90
45329;DHT22;72636;48.160;11.428;2023-11-19T12:13:16;14.80;99.90
45329;DHT22;72636;48.160;11.428;2023-11-19T12:18:23;14.80;99.90
45329;DHT22;72636;48.160;11.428;2023-11-19T12:20:50;14.80;99.90
45329;DHT22;72636;48.160;11.428;2023-11-19T12:23:15;14.80;99.90
45329;DHT22;72636;48.160;11.428;2023-11-19T12:25:41;14.80;99.90
45329;DHT22;72636;48.160;11.428;2023-11-19T12:28:12;14.90;99.90
45329;DHT22;72636;48.160;11.428;2023-11-19T12:30:38;15.00;99.90
45329;DHT22;72636;48.160;11.428;2023-11-19T12:33:08;14.90;99.90
45329;DHT22;72636;48.160;11.428;2023-11-19T12:35:44;14.90;99.90
45329;DHT22;72636;48.160;11.428;2023-11-19T12:40:46;15.00;99.90
45329;DHT22;72636;48.160;11.428;2023-11-19T12:43:21;15.20;99.90
45329;DHT22;72636;48.160;11.428;2023-11-19T12:45:50;15.20;99.90
45329;DHT22;72636;48.160;11.428;2023-11-19T12:48:16;15.30;99.90
45329;DHT22;72636;48.160;11.428;2023-11-19T12:53:23;15.50;99.90
45329;DHT22;72636;48.160;11.428;2023-11-19T12:55:49;15.50;99.90
45329;DHT22;72636;48.160;11.428;2023-11-19T12:58:34;15.50;99.90
45329;DHT22;72636;48.160;11.428;2023-11-19T13:01:02;15.60;99.90
45329;DHT22;72636;48.160;11.428;2023-11-19T13:03:32;15.60;99.90
45329;DHT22;72636;48.160;11.428;2023-11-19T13:08:35;15.70;99.90
45329;DHT22;72636;48.160;11.428;2023-11-19T13:11:01;15.60;99.90
45329;DHT22;72636;48.160;11.428;2023-11-19T13:13:27;15.40;99.90
45329;DHT22;72636;48.160;11.428;2023-11-19T13:15:53;15.30;99.90
45329;DHT22;72636;48.160;11.428;2023-11-19T13:18:19;15.20;99.90
45329;DHT22;72636;48.160;11.428;2023-11-19T13:20:44;15.10;99.90
45329;DHT22;72636;48.160;11.428;2023-11-19T13:23:10;15.10;99.90
45329;DHT22;72636;48.160;11.428;2023-11-19T13:25:36;15.20;99.90
45329;DHT22;72636;48.160;11.428;2023-11-19T13:28:02;15.00;99.90
45329;DHT22;72636;48.160;11.428;2023-11-19T13:30:27;15.00;99.90
45329;DHT22;72636;48.160;11.428;2023-11-19T13:32:55;15.10;99.90
45329;DHT22;72636;48.160;11.428;2023-11-19T13:35:21;15.20;99.90
45329;DHT22;72636;48.160;11.428;2023-11-19T13:37:50;15.10;99.90
45329;DHT22;72636;48.160;11.428;2023-11-19T13:40:17;15.20;99.90
45329;DHT22;72636;48.160;11.428;2023-11-19T13:42:43;15.00;99.90
45329;DHT22;72636;48.160;11.428;2023-11-19T13:45:10;15.00;99.90
45329;DHT22;72636;48.160;11.428;2023-11-19T13:47:39;14.90;99.90
45329;DHT22;72636;48.160;11.428;2023-11-19T13:50:08;14.90;99.90
45329;DHT22;72636;48.160;11.428;2023-11-19T13:52:34;14.80;99.90
45329;DHT22;72636;48.160;11.428;2023-11-19T13:55:00;14.80;99.90
45329;DHT22;72636;48.160;11.428;2023-11-19T13:57:26;14.60;99.90
45329;DHT22;72636;48.160;11.428;2023-11-19T13:59:51;14.60;99.90
45329;DHT22;72636;48.160;11.428;2023-11-19T14:02:17;14.60;99.90
45329;DHT22;72636;48.160;11.428;2023-11-19T14:04:42;14.50;99.90
45329;DHT22;72636;48.160;11.428;2023-11-19T14:07:08;14.50;99.90
45329;DHT22;72636;48.160;11.428;2023-11-19T14:09:33;14.50;99.90
45329;DHT22;72636;48.160;11.428;2023-11-19T14:11:59;14.50;99.90
45329;DHT22;72636;48.160;11.428;2023-11-19T14:14:25;14.40;99.90
45329;DHT22;72636;48.160;11.428;2023-11-19T14:16:50;14.40;99.90
45329;DHT22;72636;48.160;11.428;2023-11-19T14:19:16;14.30;99.90
45329;DHT22;72636;48.160;11.428;2023-11-19T14:21:41;14.40;99.90
45329;DHT22;72636;48.160;11.428;2023-11-19T14:24:07;14.30;99.90
45329;DHT22;72636;48.160;11.428;2023-11-19T14:26:33;14.30;99.90
45329;DHT22;72636;48.160;11.428;2023-11-19T14:28:58;14.30;99.90
45329;DHT22;72636;48.160;11.428;2023-11-19T14:31:28;14.30;99.90
45329;DHT22;72636;48.160;11.428;2023-11-19T14:33:54;14.20;99.90
45329;DHT22;72636;48.160;11.428;2023-11-19T14:36:20;14.30;99.90
45329;DHT22;72636;48.160;11.428;2023-11-19T14:38:45;14.20;99.90
45329;DHT22;72636;48.160;11.428;2023-11-19T14:41:11;14.20;99.90
45329;DHT22;72636;48.160;11.428;2023-11-19T14:43:39;14.20;99.90
45329;DHT22;72636;48.160;11.428;2023-11-19T14:46:04;14.20;99.90
45329;DHT22;72636;48.160;11.428;2023-11-19T14:48:31;14.20;99.90
45329;DHT22;72636;48.160;11.428;2023-11-19T14:50:57;14.00;99.90
45329;DHT22;72636;48.160;11.428;2023-11-19T14:53:23;14.00;99.90
45329;DHT22;72636;48.160;11.428;2023-11-19T14:55:49;14.00;99.90
45329;DHT22;72636;48.160;11.428;2023-11-19T14:58:14;13.90;99.90
45329;DHT22;72636;48.160;11.428;2023-11-19T15:00:40;13.90;99.90
45329;DHT22;72636;48.160;11.428;2023-11-19T15:03:05;13.90;99.90
45329;DHT22;72636;48.160;11.428;2023-11-19T15:05:31;13.80;99.90
45329;DHT22;72636;48.160;11.428;2023-11-19T15:07:57;13.80;99.90
45329;DHT22;72636;48.160;11.428;2023-11-19T15:10:23;13.70;99.90
45329;DHT22;72636;48.160;11.428;2023-11-19T15:12:50;13.70;99.90
45329;DHT22;72636;48.160;11.428;2023-11-19T15:15:15;13.70;99.90
45329;DHT22;72636;48.160;11.428;2023-11-19T15:17:41;13.60;99.90
45329;DHT22;72636;48.160;11.428;2023-11-19T15:20:07;13.50;99.90
45329;DHT22;72636;48.160;11.428;2023-11-19T15:22:33;13.50;99.90
45329;DHT22;72636;48.160;11.428;2023-11-19T15:24:59;13.50;99.90
45329;DHT22;72636;48.160;11.428;2023-11-19T15:27:24;13.50;99.90
45329;DHT22;72636;48.160;11.428;2023-11-19T15:29:50;13.40;99.90
45329;DHT22;72636;48.160;11.428;2023-11-19T15:32:15;13.40;99.90
45329;DHT22;72636;48.160;11.428;2023-11-19T15:34:41;13.40;99.90
45329;DHT22;72636;48.160;11.428;2023-11-19T15:37:07;13.40;99.90
45329;DHT22;72636;48.160;11.428;2023-11-19T15:39:33;13.30;99.90
45329;DHT22;72636;48.160;11.428;2023-11-19T15:42:01;13.20;99.90
45329;DHT22;72636;48.160;11.428;2023-11-19T15:44:27;13.20;99.90
45329;DHT22;72636;48.160;11.428;2023-11-19T15:46:54;13.10;99.90
45329;DHT22;72636;48.160;11.428;2023-11-19T15:49:20;13.00;99.90
45329;DHT22;72636;48.160;11.428;2023-11-19T15:51:46;13.00;99.90
45329;DHT22;72636;48.160;11.428;2023-11-19T15:54:11;13.00;99.90
45329;DHT22;72636;48.160;11.428;2023-11-19T15:56:37;12.90;99.90